メインページ
METAR-TAF:

METAR-TAF

空港 :

Williams Lake, ブリティッシュコロンビア州, カナダ

緯度: 52-11N, 経度: 122-03W, 海抜: 940m

現時点の気象観測

当レポートは41分前の01:00(UTC)に作成
西/北西の風 4kt、西から北/北西の間で変化する
気温 15°C
湿度 44%
気圧 1022 hPa
視程: 24.1km
高度5000ftの雲はほとんどない
高度8000ftの雲はほとんどない
高度24000ftの雲は散在している

METAR: CYWL 250100Z 30004KT 270V330 15SM FEW050 FEW080 SCT240 15/03 A3019 RMK CU1AC1CI2 AC TR SLP238 DENSITY ALT 3500FT

時間: 18:41 (01:41 UTC)

予報

当レポートは1時間3分前の00:38(UTC)に作成
予報は25日の 01時(UTC)から 25日の 13時(UTC)まで有効
変向風 3kt
視程: 10km
高度5000ftの雲はほとんどない
高度8000ftの雲は散在している
高度24000ftの千切れ雲あり
確率 30%
25日の 11時(UTC)から 25日の 13時(UTC)まで
視程: 1.6km
高度500ftの千切れ雲あり

TAF: CYWL 250038Z 2501/2513 VRB03KT P6SM FEW050 SCT080 BKN240 PROB30 2511/2513 1SM BR BKN005 RMK NXT FCST BY 250700Z

4,000以上の空港の気象観測と天気予報(METAR報とTAF報)

利用可能な観測所は地図上に黄色い丸と赤い丸で示す。

丸の上にカーソルを重ねると観測所名を参照できる。

次にクリックすると気象観測と天気予報を参照できる。

マップの切り替え:黒色「×」印の緑ボタンをクリックして拡大、「-」印の緑ボタンをクリックして縮小、緑色の三角印をクリックして隣りの地図に切り替え


METAR-TAF: